Domov               UVHVVR             MKGP            O straneh              
ZDRAVSTVENO VARSTVO RASTLIN
  MREŽA AGROMET. POSTAJ
 ► PROGNOSTIČNA OBVESTILA
AGROMETEOROLOŠKI PODATKI -
ARSO
OBVLADOVANJE TVEGANJ ZARADI
NEUGODNIH VREMENSKIH RAZMER
  ► NARAVNE NESREČE
  ► SUŠA/MOČA
  ► NAMAKANJE
  ► ŽLED (gozdarstvo)
KARTOGRAFSKI PRIKAZI
SPLETNE POVEZAVE
PROJEKTI IN PUBLIKACIJE

AGROMETEOROLOŠKA MREŽA: VREMENSKE POSTAJE IN FENOLOŠKA OPAZOVANJA

Pregled podatkov za lokacijo Senožeti, meteorološka postaja 37929

Pregled senzorjev na lokaciji

ID Ime Zadnja
vrednost
Datum
zadnje
spremembe
Tip
senzorja
1791 Omočenost lista (U) 0 U 18.10.2017 18:00 A730WET
1792 Temperatura 2 m ( °C) 18,71 °C 18.10.2017 17:59 50YA
1793 Relativna vlaga 2 m (% RH) 50,87 % RH 18.10.2017 18:00 50YA
1794 Padavine 0.2 mm (mm) 0 mm 18.10.2017 18:00 Rain-O-Matic

Pregled podatkov zadnjih 24 ur

Zap.
št.
Datum in čas Senožeti
Omočenost
lista
Padavine
0.2
mm
Relativna
vlaga
2
m
Temperatura
2
m
0 18.10.2017 17:00 0 0 50,87 18,71
1 18.10.2017 16:30 0 0 43,96 20,37
2 18.10.2017 16:00 0 0 39,83 21,51
3 18.10.2017 15:30 0 0 38,27 22,17
4 18.10.2017 15:00 0 0 39,29 21,88
5 18.10.2017 14:30 0 0 38,63 22,49
6 18.10.2017 14:00 0 0 40,24 23,22
7 18.10.2017 13:30 0 0 40,93 22,59
8 18.10.2017 13:00 0 0 40,81 22,05
9 18.10.2017 12:30 0 0 42,44 21,71
10 18.10.2017 12:00 0 0 42,52 21,1
11 18.10.2017 11:30 0 0 57,88 20,1
12 18.10.2017 11:00 0 0 69,79 17,34
13 18.10.2017 10:30 0 0 75,24 15,63
14 18.10.2017 10:00 0 0 88,13 12,89
15 18.10.2017 09:30 0 0 96,46 11,21
16 18.10.2017 09:00 4 0 99,93 10,09
17 18.10.2017 08:30 9 0 99,93 9,52
18 18.10.2017 08:00 10 0 99,93 9,21
19 18.10.2017 07:30 10 0 99,93 8,86
20 18.10.2017 07:00 10 0 99,93 8,91
21 18.10.2017 06:30 10 0 99,93 9,04
22 18.10.2017 06:00 10 0 99,93 9,35
23 18.10.2017 05:30 10 0 99,93 9,5
24 18.10.2017 05:00 10 0 99,93 9,72
25 18.10.2017 04:30 10 0 99,93 9,96
26 18.10.2017 04:00 10 0 99,93 10,16
27 18.10.2017 03:30 10 0 99,93 10,21
28 18.10.2017 03:00 10 0 99,93 10,23
29 18.10.2017 02:30 10 0 99,93 10,5
30 18.10.2017 02:00 10 0 99,93 10,53
31 18.10.2017 01:30 10 0 99,93 10,57
32 18.10.2017 01:00 10 0 99,93 10,7
33 18.10.2017 00:30 10 0 99,93 10,62
34 18.10.2017 00:00 10 0 99,93 10,13
35 17.10.2017 23:30 10 0 99,93 9,55
36 17.10.2017 23:00 10 0 99,93 9,38
37 17.10.2017 22:30 10 0 99,93 9,4
38 17.10.2017 22:00 10 0 99,93 9,57
39 17.10.2017 21:30 10 0 99,93 9,82
40 17.10.2017 21:00 10 0 99,93 10,11
41 17.10.2017 20:30 10 0 99,93 10,43
42 17.10.2017 20:00 10 0 99,73 10,79
43 17.10.2017 19:30 8 0 99,56 11,33
44 17.10.2017 19:00 4 0 98,36 11,79
45 17.10.2017 18:30 2 0 96,51 12,21
© 2011 Ministrstvo za kmetijstvo, gozdarstvo in prehrano. Vse pravice pridržane.